sensor_id;sensor_type;location;lat;lon;timestamp;P1;durP1;ratioP1;P2;durP2;ratioP2
68509;SDS011;55512;50.102;19.958;2023-02-28T00:00:22;16.50;;;7.10;;
68509;SDS011;55512;50.102;19.958;2023-02-28T00:02:49;16.50;;;7.10;;
68509;SDS011;55512;50.102;19.958;2023-02-28T00:05:18;15.60;;;6.90;;
68509;SDS011;55512;50.102;19.958;2023-02-28T00:07:47;14.00;;;6.90;;
68509;SDS011;55512;50.102;19.958;2023-02-28T00:10:17;13.80;;;7.00;;
68509;SDS011;55512;50.102;19.958;2023-02-28T00:12:47;17.30;;;7.30;;
68509;SDS011;55512;50.102;19.958;2023-02-28T00:15:13;15.90;;;7.20;;
68509;SDS011;55512;50.102;19.958;2023-02-28T00:17:39;15.30;;;7.50;;
68509;SDS011;55512;50.102;19.958;2023-02-28T00:20:05;17.00;;;7.60;;
68509;SDS011;55512;50.102;19.958;2023-02-28T00:25:16;16.10;;;7.90;;
68509;SDS011;55512;50.102;19.958;2023-02-28T00:27:43;15.60;;;7.40;;
68509;SDS011;55512;50.102;19.958;2023-02-28T00:30:13;18.60;;;7.50;;
68509;SDS011;55512;50.102;19.958;2023-02-28T00:32:41;15.80;;;6.80;;
68509;SDS011;55512;50.102;19.958;2023-02-28T00:35:07;14.60;;;7.20;;
68509;SDS011;55512;50.102;19.958;2023-02-28T00:37:34;16.70;;;7.40;;
68509;SDS011;55512;50.102;19.958;2023-02-28T00:39:59;17.30;;;7.50;;
68509;SDS011;55512;50.102;19.958;2023-02-28T00:42:25;15.50;;;6.80;;
68509;SDS011;55512;50.102;19.958;2023-02-28T00:44:51;16.30;;;7.80;;
68509;SDS011;55512;50.102;19.958;2023-02-28T00:47:16;13.80;;;7.10;;
68509;SDS011;55512;50.102;19.958;2023-02-28T00:49:42;13.70;;;6.30;;
68509;SDS011;55512;50.102;19.958;2023-02-28T00:52:08;14.10;;;6.80;;
68509;SDS011;55512;50.102;19.958;2023-02-28T00:54:33;16.00;;;6.90;;
68509;SDS011;55512;50.102;19.958;2023-02-28T00:56:59;15.80;;;7.20;;
68509;SDS011;55512;50.102;19.958;2023-02-28T00:59:25;12.80;;;6.40;;
68509;SDS011;55512;50.102;19.958;2023-02-28T01:01:50;15.40;;;7.00;;
68509;SDS011;55512;50.102;19.958;2023-02-28T01:04:16;15.00;;;6.30;;
68509;SDS011;55512;50.102;19.958;2023-02-28T01:06:41;12.90;;;6.20;;
68509;SDS011;55512;50.102;19.958;2023-02-28T01:09:07;15.80;;;6.80;;
68509;SDS011;55512;50.102;19.958;2023-02-28T01:11:34;14.70;;;6.40;;
68509;SDS011;55512;50.102;19.958;2023-02-28T01:14:00;16.00;;;6.40;;
68509;SDS011;55512;50.102;19.958;2023-02-28T01:16:27;17.10;;;7.10;;
68509;SDS011;55512;50.102;19.958;2023-02-28T01:18:54;15.00;;;6.50;;
68509;SDS011;55512;50.102;19.958;2023-02-28T01:21:21;16.70;;;6.60;;
68509;SDS011;55512;50.102;19.958;2023-02-28T01:23:47;14.90;;;7.10;;
68509;SDS011;55512;50.102;19.958;2023-02-28T01:26:15;16.70;;;7.00;;
68509;SDS011;55512;50.102;19.958;2023-02-28T01:28:46;14.40;;;6.80;;
68509;SDS011;55512;50.102;19.958;2023-02-28T01:31:12;13.30;;;6.80;;
68509;SDS011;55512;50.102;19.958;2023-02-28T01:33:38;15.20;;;7.20;;
68509;SDS011;55512;50.102;19.958;2023-02-28T01:36:13;14.90;;;6.80;;
68509;SDS011;55512;50.102;19.958;2023-02-28T01:38:40;14.30;;;6.70;;
68509;SDS011;55512;50.102;19.958;2023-02-28T01:41:07;16.70;;;7.10;;
68509;SDS011;55512;50.102;19.958;2023-02-28T01:44:03;16.60;;;7.90;;
68509;SDS011;55512;50.102;19.958;2023-02-28T01:46:49;15.90;;;6.90;;
68509;SDS011;55512;50.102;19.958;2023-02-28T01:49:16;17.10;;;7.90;;
68509;SDS011;55512;50.102;19.958;2023-02-28T01:51:53;16.10;;;7.90;;
68509;SDS011;55512;50.102;19.958;2023-02-28T01:54:40;15.70;;;7.30;;
68509;SDS011;55512;50.102;19.958;2023-02-28T01:57:13;14.50;;;7.10;;
68509;SDS011;55512;50.102;19.958;2023-02-28T01:59:47;15.20;;;7.70;;
68509;SDS011;55512;50.102;19.958;2023-02-28T02:02:22;17.60;;;7.50;;
68509;SDS011;55512;50.102;19.958;2023-02-28T02:04:56;19.20;;;8.00;;
68509;SDS011;55512;50.102;19.958;2023-02-28T02:07:29;18.10;;;8.30;;
68509;SDS011;55512;50.102;19.958;2023-02-28T02:12:47;16.80;;;8.20;;
68509;SDS011;55512;50.102;19.958;2023-02-28T02:15:41;18.40;;;7.80;;
68509;SDS011;55512;50.102;19.958;2023-02-28T02:29:36;18.50;;;8.90;;
68509;SDS011;55512;50.102;19.958;2023-02-28T02:32:41;20.30;;;7.90;;
68509;SDS011;55512;50.102;19.958;2023-02-28T02:35:34;16.20;;;7.60;;
68509;SDS011;55512;50.102;19.958;2023-02-28T02:38:35;15.70;;;7.90;;
68509;SDS011;55512;50.102;19.958;2023-02-28T02:41:14;17.80;;;7.70;;
68509;SDS011;55512;50.102;19.958;2023-02-28T02:46:44;18.00;;;8.00;;
68509;SDS011;55512;50.102;19.958;2023-02-28T02:49:24;17.10;;;7.30;;
68509;SDS011;55512;50.102;19.958;2023-02-28T02:51:54;16.70;;;8.00;;
68509;SDS011;55512;50.102;19.958;2023-02-28T02:54:27;16.30;;;7.70;;
68509;SDS011;55512;50.102;19.958;2023-02-28T02:56:58;17.10;;;7.80;;
68509;SDS011;55512;50.102;19.958;2023-02-28T02:59:27;14.50;;;7.40;;
68509;SDS011;55512;50.102;19.958;2023-02-28T03:01:57;17.90;;;7.60;;
68509;SDS011;55512;50.102;19.958;2023-02-28T03:04:34;16.00;;;7.00;;
68509;SDS011;55512;50.102;19.958;2023-02-28T03:07:05;15.80;;;7.40;;
68509;SDS011;55512;50.102;19.958;2023-02-28T03:09:33;13.90;;;6.80;;
68509;SDS011;55512;50.102;19.958;2023-02-28T03:12:01;18.20;;;7.30;;
68509;SDS011;55512;50.102;19.958;2023-02-28T03:17:18;14.40;;;6.90;;
68509;SDS011;55512;50.102;19.958;2023-02-28T03:25:56;13.50;;;6.50;;
68509;SDS011;55512;50.102;19.958;2023-02-28T03:31:39;16.00;;;6.80;;
68509;SDS011;55512;50.102;19.958;2023-02-28T03:34:24;16.20;;;7.00;;
68509;SDS011;55512;50.102;19.958;2023-02-28T03:37:02;14.90;;;6.60;;
68509;SDS011;55512;50.102;19.958;2023-02-28T03:39:41;14.90;;;6.70;;
68509;SDS011;55512;50.102;19.958;2023-02-28T03:42:18;15.50;;;7.10;;
68509;SDS011;55512;50.102;19.958;2023-02-28T03:44:59;18.00;;;8.20;;
68509;SDS011;55512;50.102;19.958;2023-02-28T03:47:54;17.00;;;7.60;;
68509;SDS011;55512;50.102;19.958;2023-02-28T03:50:33;16.40;;;7.10;;
68509;SDS011;55512;50.102;19.958;2023-02-28T03:56:26;15.10;;;7.40;;
68509;SDS011;55512;50.102;19.958;2023-02-28T04:01:45;18.50;;;7.70;;
68509;SDS011;55512;50.102;19.958;2023-02-28T04:04:13;18.80;;;7.80;;
68509;SDS011;55512;50.102;19.958;2023-02-28T04:06:40;15.50;;;7.20;;
68509;SDS011;55512;50.102;19.958;2023-02-28T04:09:08;18.70;;;7.90;;
68509;SDS011;55512;50.102;19.958;2023-02-28T04:11:37;17.20;;;7.90;;
68509;SDS011;55512;50.102;19.958;2023-02-28T04:14:04;16.00;;;7.40;;
68509;SDS011;55512;50.102;19.958;2023-02-28T04:16:32;14.60;;;7.50;;
68509;SDS011;55512;50.102;19.958;2023-02-28T04:18:59;17.80;;;8.10;;
68509;SDS011;55512;50.102;19.958;2023-02-28T04:21:38;17.00;;;7.90;;
68509;SDS011;55512;50.102;19.958;2023-02-28T04:24:08;19.70;;;8.20;;
68509;SDS011;55512;50.102;19.958;2023-02-28T04:26:40;15.20;;;8.20;;
68509;SDS011;55512;50.102;19.958;2023-02-28T04:29:10;15.10;;;8.00;;
68509;SDS011;55512;50.102;19.958;2023-02-28T04:31:36;18.70;;;9.10;;
68509;SDS011;55512;50.102;19.958;2023-02-28T04:34:02;17.90;;;8.20;;
68509;SDS011;55512;50.102;19.958;2023-02-28T04:36:28;16.30;;;7.70;;
68509;SDS011;55512;50.102;19.958;2023-02-28T04:38:54;21.10;;;8.30;;
68509;SDS011;55512;50.102;19.958;2023-02-28T04:41:20;16.10;;;7.80;;
68509;SDS011;55512;50.102;19.958;2023-02-28T04:43:48;18.00;;;8.20;;
68509;SDS011;55512;50.102;19.958;2023-02-28T04:46:14;20.20;;;8.40;;
68509;SDS011;55512;50.102;19.958;2023-02-28T04:48:40;17.80;;;8.00;;
68509;SDS011;55512;50.102;19.958;2023-02-28T04:51:11;16.80;;;7.80;;
68509;SDS011;55512;50.102;19.958;2023-02-28T04:53:39;19.50;;;8.50;;
68509;SDS011;55512;50.102;19.958;2023-02-28T04:56:06;17.00;;;8.40;;
68509;SDS011;55512;50.102;19.958;2023-02-28T04:58:33;19.00;;;9.00;;
68509;SDS011;55512;50.102;19.958;2023-02-28T05:01:14;18.50;;;8.90;;
68509;SDS011;55512;50.102;19.958;2023-02-28T05:03:50;14.70;;;7.60;;
68509;SDS011;55512;50.102;19.958;2023-02-28T05:06:18;15.70;;;7.90;;
68509;SDS011;55512;50.102;19.958;2023-02-28T05:08:46;17.20;;;7.40;;
68509;SDS011;55512;50.102;19.958;2023-02-28T05:11:15;17.10;;;8.20;;
68509;SDS011;55512;50.102;19.958;2023-02-28T05:13:50;17.20;;;7.70;;
68509;SDS011;55512;50.102;19.958;2023-02-28T05:16:16;16.30;;;7.40;;
68509;SDS011;55512;50.102;19.958;2023-02-28T05:18:43;15.30;;;7.50;;
68509;SDS011;55512;50.102;19.958;2023-02-28T05:23:57;18.20;;;7.80;;
68509;SDS011;55512;50.102;19.958;2023-02-28T05:26:26;15.90;;;7.70;;
68509;SDS011;55512;50.102;19.958;2023-02-28T05:28:53;15.80;;;5.90;;
68509;SDS011;55512;50.102;19.958;2023-02-28T05:31:21;16.40;;;7.60;;
68509;SDS011;55512;50.102;19.958;2023-02-28T05:33:46;14.30;;;7.10;;
68509;SDS011;55512;50.102;19.958;2023-02-28T05:36:12;16.90;;;7.90;;
68509;SDS011;55512;50.102;19.958;2023-02-28T05:38:38;17.10;;;7.90;;
68509;SDS011;55512;50.102;19.958;2023-02-28T05:41:06;15.60;;;7.80;;
68509;SDS011;55512;50.102;19.958;2023-02-28T05:43:32;16.70;;;7.70;;
68509;SDS011;55512;50.102;19.958;2023-02-28T05:45:58;13.60;;;5.50;;
68509;SDS011;55512;50.102;19.958;2023-02-28T05:48:23;14.30;;;7.30;;
68509;SDS011;55512;50.102;19.958;2023-02-28T05:50:49;17.20;;;7.70;;
68509;SDS011;55512;50.102;19.958;2023-02-28T05:53:14;18.00;;;8.00;;
68509;SDS011;55512;50.102;19.958;2023-02-28T05:55:40;18.30;;;7.80;;
68509;SDS011;55512;50.102;19.958;2023-02-28T05:58:06;19.80;;;8.90;;
68509;SDS011;55512;50.102;19.958;2023-02-28T06:00:31;18.90;;;8.70;;
68509;SDS011;55512;50.102;19.958;2023-02-28T06:02:57;16.10;;;8.80;;
68509;SDS011;55512;50.102;19.958;2023-02-28T06:05:25;23.10;;;8.10;;
68509;SDS011;55512;50.102;19.958;2023-02-28T06:07:50;17.20;;;8.50;;
68509;SDS011;55512;50.102;19.958;2023-02-28T06:10:16;20.80;;;10.10;;
68509;SDS011;55512;50.102;19.958;2023-02-28T06:12:41;17.10;;;8.60;;
68509;SDS011;55512;50.102;19.958;2023-02-28T06:15:14;18.90;;;8.50;;
68509;SDS011;55512;50.102;19.958;2023-02-28T06:17:41;20.30;;;9.60;;
68509;SDS011;55512;50.102;19.958;2023-02-28T06:20:09;19.10;;;8.90;;
68509;SDS011;55512;50.102;19.958;2023-02-28T06:22:38;20.00;;;9.10;;
68509;SDS011;55512;50.102;19.958;2023-02-28T06:25:05;17.80;;;7.90;;
68509;SDS011;55512;50.102;19.958;2023-02-28T06:27:33;19.70;;;8.60;;
68509;SDS011;55512;50.102;19.958;2023-02-28T06:29:59;21.90;;;10.30;;
68509;SDS011;55512;50.102;19.958;2023-02-28T06:32:25;20.40;;;9.60;;
68509;SDS011;55512;50.102;19.958;2023-02-28T06:34:50;19.60;;;9.60;;
68509;SDS011;55512;50.102;19.958;2023-02-28T06:37:17;19.50;;;9.70;;
68509;SDS011;55512;50.102;19.958;2023-02-28T06:39:43;20.90;;;9.40;;
68509;SDS011;55512;50.102;19.958;2023-02-28T06:42:08;20.40;;;9.00;;
68509;SDS011;55512;50.102;19.958;2023-02-28T06:44:34;19.70;;;10.10;;
68509;SDS011;55512;50.102;19.958;2023-02-28T06:47:01;19.80;;;10.50;;
68509;SDS011;55512;50.102;19.958;2023-02-28T06:49:31;21.30;;;9.60;;
68509;SDS011;55512;50.102;19.958;2023-02-28T06:51:57;22.70;;;9.90;;
68509;SDS011;55512;50.102;19.958;2023-02-28T06:54:23;21.10;;;10.30;;
68509;SDS011;55512;50.102;19.958;2023-02-28T06:56:49;19.70;;;10.60;;
68509;SDS011;55512;50.102;19.958;2023-02-28T06:59:16;22.10;;;10.20;;
68509;SDS011;55512;50.102;19.958;2023-02-28T07:01:42;20.80;;;9.90;;
68509;SDS011;55512;50.102;19.958;2023-02-28T07:04:07;28.00;;;11.30;;
68509;SDS011;55512;50.102;19.958;2023-02-28T07:06:33;22.60;;;10.60;;
68509;SDS011;55512;50.102;19.958;2023-02-28T07:08:59;24.90;;;10.60;;
68509;SDS011;55512;50.102;19.958;2023-02-28T07:11:26;21.90;;;11.10;;
68509;SDS011;55512;50.102;19.958;2023-02-28T07:13:54;23.80;;;11.00;;
68509;SDS011;55512;50.102;19.958;2023-02-28T07:16:21;20.30;;;9.70;;
68509;SDS011;55512;50.102;19.958;2023-02-28T07:18:48;28.00;;;11.30;;
68509;SDS011;55512;50.102;19.958;2023-02-28T07:21:14;30.30;;;12.10;;
68509;SDS011;55512;50.102;19.958;2023-02-28T07:23:41;38.60;;;14.20;;
68509;SDS011;55512;50.102;19.958;2023-02-28T07:26:10;35.20;;;12.90;;
68509;SDS011;55512;50.102;19.958;2023-02-28T07:28:40;32.10;;;12.50;;
68509;SDS011;55512;50.102;19.958;2023-02-28T07:31:08;28.00;;;12.70;;
68509;SDS011;55512;50.102;19.958;2023-02-28T07:33:35;30.90;;;11.30;;
68509;SDS011;55512;50.102;19.958;2023-02-28T07:36:06;28.20;;;12.10;;
68509;SDS011;55512;50.102;19.958;2023-02-28T07:38:37;24.30;;;10.50;;
68509;SDS011;55512;50.102;19.958;2023-02-28T07:41:02;25.60;;;11.30;;
68509;SDS011;55512;50.102;19.958;2023-02-28T07:43:33;25.20;;;11.10;;
68509;SDS011;55512;50.102;19.958;2023-02-28T07:46:18;21.80;;;9.90;;
68509;SDS011;55512;50.102;19.958;2023-02-28T07:48:46;22.50;;;11.40;;
68509;SDS011;55512;50.102;19.958;2023-02-28T07:51:12;22.00;;;10.10;;
68509;SDS011;55512;50.102;19.958;2023-02-28T07:53:37;19.90;;;10.10;;
68509;SDS011;55512;50.102;19.958;2023-02-28T07:56:03;20.70;;;9.40;;
68509;SDS011;55512;50.102;19.958;2023-02-28T07:58:30;20.20;;;9.30;;
68509;SDS011;55512;50.102;19.958;2023-02-28T08:00:56;19.70;;;10.10;;
68509;SDS011;55512;50.102;19.958;2023-02-28T08:03:23;21.50;;;9.80;;
68509;SDS011;55512;50.102;19.958;2023-02-28T08:05:49;19.30;;;9.80;;
68509;SDS011;55512;50.102;19.958;2023-02-28T08:08:16;19.20;;;8.10;;
68509;SDS011;55512;50.102;19.958;2023-02-28T08:10:42;17.10;;;7.70;;
68509;SDS011;55512;50.102;19.958;2023-02-28T08:13:08;16.60;;;7.20;;
68509;SDS011;55512;50.102;19.958;2023-02-28T08:15:34;16.20;;;7.30;;
68509;SDS011;55512;50.102;19.958;2023-02-28T08:18:01;18.60;;;7.70;;
68509;SDS011;55512;50.102;19.958;2023-02-28T08:20:26;17.40;;;7.90;;
68509;SDS011;55512;50.102;19.958;2023-02-28T08:22:52;17.10;;;8.40;;
68509;SDS011;55512;50.102;19.958;2023-02-28T08:25:18;19.90;;;8.00;;
68509;SDS011;55512;50.102;19.958;2023-02-28T08:27:44;18.50;;;9.20;;
68509;SDS011;55512;50.102;19.958;2023-02-28T08:32:40;20.30;;;8.80;;
68509;SDS011;55512;50.102;19.958;2023-02-28T08:35:06;17.10;;;8.10;;
68509;SDS011;55512;50.102;19.958;2023-02-28T08:37:32;11.60;;;6.20;;
68509;SDS011;55512;50.102;19.958;2023-02-28T08:39:57;12.50;;;6.10;;
68509;SDS011;55512;50.102;19.958;2023-02-28T08:42:23;13.60;;;5.80;;
68509;SDS011;55512;50.102;19.958;2023-02-28T08:44:49;10.80;;;4.90;;
68509;SDS011;55512;50.102;19.958;2023-02-28T08:47:14;13.10;;;4.90;;
68509;SDS011;55512;50.102;19.958;2023-02-28T08:49:40;10.10;;;4.30;;
68509;SDS011;55512;50.102;19.958;2023-02-28T08:52:06;9.10;;;4.00;;
68509;SDS011;55512;50.102;19.958;2023-02-28T08:54:31;11.10;;;4.30;;
68509;SDS011;55512;50.102;19.958;2023-02-28T08:56:58;9.30;;;4.00;;
68509;SDS011;55512;50.102;19.958;2023-02-28T08:59:23;10.00;;;4.10;;
68509;SDS011;55512;50.102;19.958;2023-02-28T09:01:49;8.70;;;4.30;;
68509;SDS011;55512;50.102;19.958;2023-02-28T09:04:14;11.20;;;5.10;;
68509;SDS011;55512;50.102;19.958;2023-02-28T09:06:40;10.80;;;4.80;;
68509;SDS011;55512;50.102;19.958;2023-02-28T09:09:06;10.60;;;4.90;;
68509;SDS011;55512;50.102;19.958;2023-02-28T09:11:33;10.90;;;4.70;;
68509;SDS011;55512;50.102;19.958;2023-02-28T09:14:00;9.30;;;4.70;;
68509;SDS011;55512;50.102;19.958;2023-02-28T09:16:29;10.50;;;4.60;;
68509;SDS011;55512;50.102;19.958;2023-02-28T09:18:59;10.60;;;4.30;;
68509;SDS011;55512;50.102;19.958;2023-02-28T09:21:24;10.90;;;4.60;;
68509;SDS011;55512;50.102;19.958;2023-02-28T09:23:50;11.90;;;4.80;;
68509;SDS011;55512;50.102;19.958;2023-02-28T09:26:27;11.60;;;4.40;;
68509;SDS011;55512;50.102;19.958;2023-02-28T09:28:54;11.30;;;4.70;;
68509;SDS011;55512;50.102;19.958;2023-02-28T09:31:25;9.60;;;4.30;;
68509;SDS011;55512;50.102;19.958;2023-02-28T09:33:55;9.50;;;4.10;;
68509;SDS011;55512;50.102;19.958;2023-02-28T09:36:23;10.20;;;4.90;;
68509;SDS011;55512;50.102;19.958;2023-02-28T09:38:50;14.50;;;4.80;;
68509;SDS011;55512;50.102;19.958;2023-02-28T09:41:32;11.50;;;5.50;;
68509;SDS011;55512;50.102;19.958;2023-02-28T09:44:07;10.10;;;4.70;;
68509;SDS011;55512;50.102;19.958;2023-02-28T09:46:43;13.00;;;5.40;;
68509;SDS011;55512;50.102;19.958;2023-02-28T09:49:17;9.10;;;4.20;;
68509;SDS011;55512;50.102;19.958;2023-02-28T09:51:49;11.30;;;5.00;;
68509;SDS011;55512;50.102;19.958;2023-02-28T09:54:18;11.00;;;4.40;;
68509;SDS011;55512;50.102;19.958;2023-02-28T09:56:53;11.40;;;5.10;;
68509;SDS011;55512;50.102;19.958;2023-02-28T10:02:51;11.70;;;4.50;;
68509;SDS011;55512;50.102;19.958;2023-02-28T10:05:41;12.30;;;5.30;;
68509;SDS011;55512;50.102;19.958;2023-02-28T10:08:18;9.40;;;3.70;;
68509;SDS011;55512;50.102;19.958;2023-02-28T10:10:53;10.90;;;5.90;;
68509;SDS011;55512;50.102;19.958;2023-02-28T10:16:46;10.20;;;4.00;;
68509;SDS011;55512;50.102;19.958;2023-02-28T10:19:29;13.80;;;5.40;;
68509;SDS011;55512;50.102;19.958;2023-02-28T10:22:03;12.10;;;6.00;;
68509;SDS011;55512;50.102;19.958;2023-02-28T10:24:42;9.50;;;3.70;;
68509;SDS011;55512;50.102;19.958;2023-02-28T10:27:23;8.10;;;3.70;;
68509;SDS011;55512;50.102;19.958;2023-02-28T10:29:53;13.10;;;6.70;;
68509;SDS011;55512;50.102;19.958;2023-02-28T10:32:27;13.40;;;7.50;;
68509;SDS011;55512;50.102;19.958;2023-02-28T10:35:06;13.20;;;6.30;;
68509;SDS011;55512;50.102;19.958;2023-02-28T10:37:46;11.00;;;5.50;;
68509;SDS011;55512;50.102;19.958;2023-02-28T10:43:11;10.00;;;4.90;;
68509;SDS011;55512;50.102;19.958;2023-02-28T10:45:59;13.10;;;5.40;;
68509;SDS011;55512;50.102;19.958;2023-02-28T10:48:32;10.60;;;5.00;;
68509;SDS011;55512;50.102;19.958;2023-02-28T10:50:59;11.50;;;4.90;;
68509;SDS011;55512;50.102;19.958;2023-02-28T10:56:04;10.80;;;4.90;;
68509;SDS011;55512;50.102;19.958;2023-02-28T11:04:03;11.60;;;5.20;;
68509;SDS011;55512;50.102;19.958;2023-02-28T11:06:48;11.50;;;5.00;;
68509;SDS011;55512;50.102;19.958;2023-02-28T11:09:27;8.70;;;3.90;;
68509;SDS011;55512;50.102;19.958;2023-02-28T11:11:56;11.00;;;4.30;;
68509;SDS011;55512;50.102;19.958;2023-02-28T11:14:25;13.00;;;5.60;;
68509;SDS011;55512;50.102;19.958;2023-02-28T11:16:55;9.30;;;3.80;;
68509;SDS011;55512;50.102;19.958;2023-02-28T11:19:35;10.20;;;4.80;;
68509;SDS011;55512;50.102;19.958;2023-02-28T11:22:05;11.80;;;5.50;;
68509;SDS011;55512;50.102;19.958;2023-02-28T11:24:35;11.90;;;4.60;;
68509;SDS011;55512;50.102;19.958;2023-02-28T11:30:00;10.60;;;5.20;;
68509;SDS011;55512;50.102;19.958;2023-02-28T11:32:30;8.20;;;3.90;;
68509;SDS011;55512;50.102;19.958;2023-02-28T11:35:14;11.30;;;5.10;;
68509;SDS011;55512;50.102;19.958;2023-02-28T11:37:44;10.60;;;5.10;;
68509;SDS011;55512;50.102;19.958;2023-02-28T11:40:25;9.80;;;4.20;;
68509;SDS011;55512;50.102;19.958;2023-02-28T11:43:16;11.40;;;5.60;;
68509;SDS011;55512;50.102;19.958;2023-02-28T11:51:54;10.60;;;5.40;;
68509;SDS011;55512;50.102;19.958;2023-02-28T12:03:36;9.40;;;4.80;;
68509;SDS011;55512;50.102;19.958;2023-02-28T12:06:28;14.30;;;5.80;;
68509;SDS011;55512;50.102;19.958;2023-02-28T12:09:37;8.20;;;3.70;;
68509;SDS011;55512;50.102;19.958;2023-02-28T12:21:08;10.10;;;3.40;;
68509;SDS011;55512;50.102;19.958;2023-02-28T12:24:15;12.20;;;5.40;;
68509;SDS011;55512;50.102;19.958;2023-02-28T12:26:51;11.70;;;5.00;;
68509;SDS011;55512;50.102;19.958;2023-02-28T12:29:33;12.50;;;5.20;;
68509;SDS011;55512;50.102;19.958;2023-02-28T12:35:11;11.10;;;5.30;;
68509;SDS011;55512;50.102;19.958;2023-02-28T12:38:18;11.70;;;4.90;;
68509;SDS011;55512;50.102;19.958;2023-02-28T12:40:54;13.40;;;5.30;;
68509;SDS011;55512;50.102;19.958;2023-02-28T12:43:32;12.10;;;5.00;;
68509;SDS011;55512;50.102;19.958;2023-02-28T12:46:14;16.50;;;5.20;;
68509;SDS011;55512;50.102;19.958;2023-02-28T12:49:13;12.00;;;6.00;;
68509;SDS011;55512;50.102;19.958;2023-02-28T12:51:40;11.10;;;5.10;;
68509;SDS011;55512;50.102;19.958;2023-02-28T12:54:27;7.50;;;3.70;;
68509;SDS011;55512;50.102;19.958;2023-02-28T12:57:08;11.20;;;4.80;;
68509;SDS011;55512;50.102;19.958;2023-02-28T13:00:12;10.40;;;5.80;;
68509;SDS011;55512;50.102;19.958;2023-02-28T13:10:44;11.40;;;6.00;;
68509;SDS011;55512;50.102;19.958;2023-02-28T13:13:25;11.80;;;5.90;;
68509;SDS011;55512;50.102;19.958;2023-02-28T13:18:35;12.30;;;6.20;;
68509;SDS011;55512;50.102;19.958;2023-02-28T13:21:09;9.80;;;4.70;;
68509;SDS011;55512;50.102;19.958;2023-02-28T13:40:32;13.60;;;5.70;;
68509;SDS011;55512;50.102;19.958;2023-02-28T13:42:52;11.20;;;4.20;;
68509;SDS011;55512;50.102;19.958;2023-02-28T13:45:28;8.70;;;3.80;;
68509;SDS011;55512;50.102;19.958;2023-02-28T13:50:49;10.30;;;5.50;;
68509;SDS011;55512;50.102;19.958;2023-02-28T14:02:43;11.80;;;5.60;;
68509;SDS011;55512;50.102;19.958;2023-02-28T14:05:14;10.90;;;5.00;;
68509;SDS011;55512;50.102;19.958;2023-02-28T14:07:56;10.70;;;5.50;;
68509;SDS011;55512;50.102;19.958;2023-02-28T14:10:33;12.10;;;5.50;;
68509;SDS011;55512;50.102;19.958;2023-02-28T14:16:00;11.10;;;5.70;;
68509;SDS011;55512;50.102;19.958;2023-02-28T14:18:33;10.50;;;4.80;;
68509;SDS011;55512;50.102;19.958;2023-02-28T14:21:11;12.70;;;5.70;;
68509;SDS011;55512;50.102;19.958;2023-02-28T14:24:01;8.40;;;3.50;;
68509;SDS011;55512;50.102;19.958;2023-02-28T14:32:53;10.10;;;6.10;;
68509;SDS011;55512;50.102;19.958;2023-02-28T14:38:32;11.00;;;7.10;;
68509;SDS011;55512;50.102;19.958;2023-02-28T14:41:04;12.20;;;7.60;;
68509;SDS011;55512;50.102;19.958;2023-02-28T14:43:48;10.60;;;7.00;;
68509;SDS011;55512;50.102;19.958;2023-02-28T14:46:17;9.70;;;7.00;;
68509;SDS011;55512;50.102;19.958;2023-02-28T14:48:48;9.10;;;6.50;;
68509;SDS011;55512;50.102;19.958;2023-02-28T14:51:20;9.90;;;6.80;;
68509;SDS011;55512;50.102;19.958;2023-02-28T14:53:57;11.60;;;7.30;;
68509;SDS011;55512;50.102;19.958;2023-02-28T14:56:30;9.90;;;7.30;;
68509;SDS011;55512;50.102;19.958;2023-02-28T14:59:00;10.30;;;7.10;;
68509;SDS011;55512;50.102;19.958;2023-02-28T15:01:26;13.20;;;8.20;;
68509;SDS011;55512;50.102;19.958;2023-02-28T15:03:59;9.80;;;7.20;;
68509;SDS011;55512;50.102;19.958;2023-02-28T15:06:28;9.90;;;7.20;;
68509;SDS011;55512;50.102;19.958;2023-02-28T15:11:41;12.50;;;8.50;;
68509;SDS011;55512;50.102;19.958;2023-02-28T15:14:20;13.20;;;7.80;;
68509;SDS011;55512;50.102;19.958;2023-02-28T15:16:54;11.10;;;8.00;;
68509;SDS011;55512;50.102;19.958;2023-02-28T15:19:42;8.40;;;6.20;;
68509;SDS011;55512;50.102;19.958;2023-02-28T15:22:17;9.80;;;7.40;;
68509;SDS011;55512;50.102;19.958;2023-02-28T15:24:50;9.80;;;7.60;;
68509;SDS011;55512;50.102;19.958;2023-02-28T15:27:28;11.60;;;8.10;;
68509;SDS011;55512;50.102;19.958;2023-02-28T15:30:05;10.70;;;7.30;;
68509;SDS011;55512;50.102;19.958;2023-02-28T15:32:34;11.50;;;8.10;;
68509;SDS011;55512;50.102;19.958;2023-02-28T15:35:27;19.90;;;8.90;;
68509;SDS011;55512;50.102;19.958;2023-02-28T15:40:53;12.10;;;8.20;;
68509;SDS011;55512;50.102;19.958;2023-02-28T15:46:09;11.40;;;7.50;;
68509;SDS011;55512;50.102;19.958;2023-02-28T15:48:51;11.80;;;7.30;;
68509;SDS011;55512;50.102;19.958;2023-02-28T15:51:20;10.20;;;6.50;;
68509;SDS011;55512;50.102;19.958;2023-02-28T15:53:56;14.40;;;7.90;;
68509;SDS011;55512;50.102;19.958;2023-02-28T15:56:29;10.40;;;7.00;;
68509;SDS011;55512;50.102;19.958;2023-02-28T15:59:03;11.20;;;6.80;;
68509;SDS011;55512;50.102;19.958;2023-02-28T16:01:38;10.80;;;6.70;;
68509;SDS011;55512;50.102;19.958;2023-02-28T16:04:19;13.70;;;7.30;;
68509;SDS011;55512;50.102;19.958;2023-02-28T16:06:46;12.50;;;6.90;;
68509;SDS011;55512;50.102;19.958;2023-02-28T16:09:26;12.70;;;7.40;;
68509;SDS011;55512;50.102;19.958;2023-02-28T16:11:55;10.80;;;6.50;;
68509;SDS011;55512;50.102;19.958;2023-02-28T16:14:24;10.80;;;6.10;;
68509;SDS011;55512;50.102;19.958;2023-02-28T16:17:06;11.60;;;6.30;;
68509;SDS011;55512;50.102;19.958;2023-02-28T16:19:38;11.00;;;5.80;;
68509;SDS011;55512;50.102;19.958;2023-02-28T16:22:04;11.80;;;6.30;;
68509;SDS011;55512;50.102;19.958;2023-02-28T16:24:29;11.50;;;6.70;;
68509;SDS011;55512;50.102;19.958;2023-02-28T16:26:55;12.10;;;6.10;;
68509;SDS011;55512;50.102;19.958;2023-02-28T16:29:26;12.60;;;6.00;;
68509;SDS011;55512;50.102;19.958;2023-02-28T16:31:55;12.10;;;6.80;;
68509;SDS011;55512;50.102;19.958;2023-02-28T16:34:21;13.40;;;6.40;;
68509;SDS011;55512;50.102;19.958;2023-02-28T16:36:48;11.30;;;6.00;;
68509;SDS011;55512;50.102;19.958;2023-02-28T16:39:14;11.30;;;6.00;;
68509;SDS011;55512;50.102;19.958;2023-02-28T16:41:42;11.50;;;6.60;;
68509;SDS011;55512;50.102;19.958;2023-02-28T16:44:13;13.60;;;6.70;;
68509;SDS011;55512;50.102;19.958;2023-02-28T16:46:54;13.50;;;7.20;;
68509;SDS011;55512;50.102;19.958;2023-02-28T16:49:19;11.90;;;6.70;;
68509;SDS011;55512;50.102;19.958;2023-02-28T16:51:46;13.70;;;7.30;;
68509;SDS011;55512;50.102;19.958;2023-02-28T16:54:11;12.30;;;7.00;;
68509;SDS011;55512;50.102;19.958;2023-02-28T16:56:39;14.00;;;6.40;;
68509;SDS011;55512;50.102;19.958;2023-02-28T16:59:10;12.50;;;6.20;;
68509;SDS011;55512;50.102;19.958;2023-02-28T17:01:37;12.30;;;5.60;;
68509;SDS011;55512;50.102;19.958;2023-02-28T17:04:03;14.80;;;6.70;;
68509;SDS011;55512;50.102;19.958;2023-02-28T17:06:29;12.50;;;6.40;;
68509;SDS011;55512;50.102;19.958;2023-02-28T17:08:57;12.90;;;5.90;;
68509;SDS011;55512;50.102;19.958;2023-02-28T17:11:24;12.90;;;6.20;;
68509;SDS011;55512;50.102;19.958;2023-02-28T17:13:50;14.10;;;6.70;;
68509;SDS011;55512;50.102;19.958;2023-02-28T17:16:29;13.30;;;6.00;;